Time;durP1;ratioP1;P1;durP2;ratioP2;P2;SDS_P1;SDS_P2;PMS_P1;PMS_P2;Temp;Humidity;BMP_temperature;BMP_pressure;BME280_temperature;BME280_humidity;BME280_pressure;Samples;Min_cycle;Max_cycle;Signal;HPM_P1;HPM_P2
2022/12/06 00:01:10;;;;;;;6.75;2.53;;;5.40;99.90;;;;;;6238130;23;20016;-81
2022/12/06 00:03:37;;;;;;;11.30;3.10;;;5.40;99.90;;;;;;6237558;23;20016;-81
2022/12/06 00:06:09;;;;;;;10.25;3.10;;;5.30;99.90;;;;;;6214031;23;20447;-81
2022/12/06 00:08:36;;;;;;;10.85;2.78;;;5.40;99.90;;;;;;6241159;23;20024;-82
2022/12/06 00:11:04;;;;;;;10.77;2.80;;;5.30;99.90;;;;;;6238845;23;20505;-81
2022/12/06 00:13:30;;;;;;;7.30;2.78;;;5.30;99.90;;;;;;6241507;23;20014;-81
2022/12/06 00:16:03;;;;;;;7.90;2.88;;;5.60;99.90;;;;;;6240126;23;20091;-81
2022/12/06 00:18:29;;;;;;;10.57;2.80;;;5.30;99.90;;;;;;6239421;23;20020;-82
2022/12/06 00:20:55;;;;;;;8.18;2.45;;;5.20;99.90;;;;;;6240758;22;20012;-81
2022/12/06 00:23:22;;;;;;;7.20;2.60;;;5.20;99.90;;;;;;6238887;23;20016;-81
2022/12/06 00:25:47;;;;;;;12.60;3.28;;;5.20;99.90;;;;;;6240717;22;20055;-81
2022/12/06 00:28:13;;;;;;;12.43;3.22;;;5.20;99.90;;;;;;6241204;23;20024;-81
2022/12/06 00:30:39;;;;;;;9.98;2.95;;;6.00;99.90;;;;;;6238207;23;20024;-81
2022/12/06 00:33:04;;;;;;;7.68;2.47;;;5.20;99.90;;;;;;6240729;23;20012;-81
2022/12/06 00:35:30;;;;;;;11.15;2.80;;;5.10;99.90;;;;;;6239044;23;20062;-81
2022/12/06 00:37:56;;;;;;;8.95;3.05;;;5.10;99.90;;;;;;6238685;23;20012;-80
2022/12/06 00:40:21;;;;;;;12.18;3.72;;;5.60;99.90;;;;;;6241303;22;20355;-81
2022/12/06 00:42:47;;;;;;;7.47;2.15;;;5.10;99.90;;;;;;6239527;23;20027;-81
2022/12/06 00:45:13;;;;;;;11.75;2.80;;;5.00;99.90;;;;;;6240564;23;20514;-81
2022/12/06 00:47:38;;;;;;;12.57;3.13;;;5.00;99.90;;;;;;6239376;23;20024;-81
2022/12/06 00:50:05;;;;;;;8.88;3.10;;;5.00;99.90;;;;;;6239423;23;20020;-81
2022/12/06 00:52:30;;;;;;;13.13;3.22;;;5.00;99.90;;;;;;6238677;23;20085;-81
2022/12/06 00:54:56;;;;;;;7.63;2.90;;;5.00;99.90;;;;;;6238956;23;20335;-81
2022/12/06 00:57:22;;;;;;;11.45;3.58;;;5.00;99.90;;;;;;6240805;23;20019;-81
2022/12/06 00:59:47;;;;;;;8.13;2.90;;;5.00;99.90;;;;;;6240275;23;20435;-81
2022/12/06 01:02:13;;;;;;;11.32;3.53;;;5.00;99.90;;;;;;6241079;23;20050;-81
2022/12/06 01:04:39;;;;;;;9.68;3.78;;;5.10;99.90;;;;;;6239080;23;20020;-81
2022/12/06 01:07:04;;;;;;;9.75;2.90;;;5.10;99.90;;;;;;6238010;23;20016;-81
2022/12/06 01:09:30;;;;;;;11.35;3.47;;;5.10;99.90;;;;;;6239570;23;20450;-81
2022/12/06 01:11:57;;;;;;;9.20;3.70;;;5.10;99.90;;;;;;6240781;23;20012;-81
2022/12/06 01:14:23;;;;;;;11.48;3.20;;;5.10;99.90;;;;;;6240089;23;20134;-81
2022/12/06 01:16:49;;;;;;;8.70;3.20;;;5.10;99.90;;;;;;6238812;23;20046;-81
2022/12/06 01:19:14;;;;;;;10.93;2.83;;;5.10;99.90;;;;;;6238208;23;20091;-81
2022/12/06 01:21:40;;;;;;;7.28;2.70;;;5.10;99.90;;;;;;6239171;23;20016;-81
2022/12/06 01:24:06;;;;;;;9.55;2.78;;;5.10;99.90;;;;;;6238858;23;20012;-82
2022/12/06 01:26:33;;;;;;;8.55;2.67;;;5.10;99.90;;;;;;6240788;22;20041;-81
2022/12/06 01:29:00;;;;;;;10.77;2.78;;;5.10;99.90;;;;;;6238185;23;20031;-81
2022/12/06 01:31:26;;;;;;;7.80;2.65;;;5.10;99.90;;;;;;6238580;23;20027;-81
2022/12/06 01:33:52;;;;;;;7.60;2.00;;;5.10;99.90;;;;;;6238919;23;20020;-81
2022/12/06 01:36:23;;;;;;;6.13;1.60;;;5.10;99.90;;;;;;6240270;23;20564;-81
2022/12/06 01:38:55;;;;;;;5.40;1.73;;;5.10;99.90;;;;;;6238367;23;20044;-81
2022/12/06 01:41:22;;;;;;;7.40;1.90;;;5.10;99.90;;;;;;6240084;22;20510;-80
2022/12/06 01:43:49;;;;;;;5.00;1.63;;;5.10;99.90;;;;;;6241017;22;20008;-81
2022/12/06 01:46:33;;;;;;;5.85;1.65;;;5.10;99.90;;;;;;6238713;23;20051;-81
2022/12/06 01:49:11;;;;;;;5.72;1.67;;;5.10;99.90;;;;;;6239433;23;20062;-81
2022/12/06 01:51:47;;;;;;;7.68;1.50;;;4.40;99.90;;;;;;6238098;23;20016;-81
2022/12/06 01:54:15;;;;;;;6.20;1.77;;;5.10;99.90;;;;;;6238580;23;20020;-81
2022/12/06 01:56:41;;;;;;;4.90;1.77;;;5.10;99.90;;;;;;6239488;23;20478;-80
2022/12/06 01:59:08;;;;;;;5.82;1.52;;;5.10;99.90;;;;;;6238579;23;20016;-81
2022/12/06 02:01:34;;;;;;;4.30;1.38;;;5.10;99.90;;;;;;6239799;23;20016;-81
2022/12/06 02:04:00;;;;;;;4.40;1.13;;;5.10;99.90;;;;;;6237338;23;20106;-81
2022/12/06 02:06:28;;;;;;;5.38;1.48;;;5.10;99.90;;;;;;6238819;23;20012;-81
2022/12/06 02:08:55;;;;;;;11.02;1.10;;;5.10;99.90;;;;;;6240408;23;20055;-81
2022/12/06 02:11:20;;;;;;;4.50;1.20;;;5.10;99.90;;;;;;6237300;23;20027;-81
2022/12/06 02:13:46;;;;;;;3.17;1.05;;;5.00;99.90;;;;;;6240569;23;20008;-81
2022/12/06 02:16:44;;;;;;;3.83;0.90;;;5.00;99.90;;;;;;6240693;23;20075;-81
2022/12/06 02:19:43;;;;;;;2.25;1.13;;;5.00;99.90;;;;;;6240124;22;20016;-81
2022/12/06 02:22:40;;;;;;;2.80;0.90;;;5.00;99.90;;;;;;6240696;23;20018;-81
2022/12/06 02:25:40;;;;;;;3.67;0.80;;;5.00;99.90;;;;;;6240064;23;20066;-81
2022/12/06 02:28:27;;;;;;;4.57;1.20;;;5.00;99.90;;;;;;6228744;23;20044;-81
2022/12/06 02:31:22;;;;;;;2.53;0.90;;;5.00;99.90;;;;;;6239512;23;20536;-81
2022/12/06 02:33:57;;;;;;;5.25;0.85;;;5.00;99.90;;;;;;6250802;22;20012;-81
2022/12/06 02:36:33;;;;;;;5.60;1.00;;;4.90;99.90;;;;;;6238164;23;20027;-81
2022/12/06 02:39:23;;;;;;;2.58;0.73;;;4.90;99.90;;;;;;6238269;23;20083;-81
2022/12/06 02:42:10;;;;;;;2.85;0.80;;;4.90;99.90;;;;;;6239301;23;20443;-81
2022/12/06 02:45:08;;;;;;;3.17;1.00;;;4.90;99.90;;;;;;6238820;23;20044;-81
2022/12/06 02:47:35;;;;;;;3.10;0.80;;;4.90;99.90;;;;;;6260765;22;20028;-81
2022/12/06 02:50:07;;;;;;;3.30;0.95;;;4.90;99.90;;;;;;6241934;22;20023;-81
2022/12/06 02:52:37;;;;;;;3.33;1.08;;;4.80;99.90;;;;;;6242944;23;20023;-81
2022/12/06 02:55:05;;;;;;;3.00;0.88;;;4.80;99.90;;;;;;6241993;23;20019;-81
2022/12/06 02:57:38;;;;;;;4.63;1.20;;;4.80;99.90;;;;;;6240739;23;20095;-81
2022/12/06 03:00:32;;;;;;;3.47;0.85;;;4.80;99.90;;;;;;6241521;23;20020;-81
2022/12/06 03:03:07;;;;;;;3.47;0.83;;;4.80;99.90;;;;;;6241508;22;20075;-81
2022/12/06 03:05:43;;;;;;;5.88;1.30;;;4.80;99.90;;;;;;6239826;23;20074;-81
2022/12/06 03:08:22;;;;;;;4.95;1.27;;;4.80;99.90;;;;;;6241840;22;20016;-81
2022/12/06 03:10:56;;;;;;;5.03;1.10;;;4.80;99.90;;;;;;6241154;23;20428;-81
2022/12/06 03:13:33;;;;;;;4.60;1.20;;;4.80;99.90;;;;;;6241920;23;20012;-80
2022/12/06 03:16:06;;;;;;;6.18;1.00;;;4.80;99.90;;;;;;6239852;23;20019;-81
2022/12/06 03:18:47;;;;;;;4.57;0.93;;;4.80;99.90;;;;;;6241312;22;20016;-82
2022/12/06 03:21:26;;;;;;;4.00;1.15;;;4.80;99.90;;;;;;6242002;23;20012;-81
2022/12/06 03:23:53;;;;;;;3.30;0.90;;;4.80;99.90;;;;;;6241645;23;20012;-81
2022/12/06 03:26:24;;;;;;;4.95;1.17;;;4.80;99.90;;;;;;6242101;23;20012;-81
2022/12/06 03:28:57;;;;;;;2.42;0.82;;;4.80;99.90;;;;;;6241906;23;20051;-81
2022/12/06 03:31:24;;;;;;;3.67;0.82;;;4.80;99.90;;;;;;6242582;23;20031;-81
2022/12/06 03:34:02;;;;;;;4.13;0.95;;;4.80;99.90;;;;;;6240014;23;20482;-81
2022/12/06 03:36:29;;;;;;;4.78;1.20;;;4.80;99.90;;;;;;6241351;23;20391;-81
2022/12/06 03:38:59;;;;;;;5.72;1.15;;;4.80;99.90;;;;;;6238832;23;20016;-81
2022/12/06 03:41:31;;;;;;;3.80;1.20;;;4.90;99.90;;;;;;6240339;23;20008;-81
2022/12/06 03:43:58;;;;;;;4.22;1.25;;;4.80;99.90;;;;;;6265956;22;20008;-81
2022/12/06 03:46:28;;;;;;;3.47;0.90;;;4.90;99.90;;;;;;6242166;22;20051;-81
2022/12/06 03:49:00;;;;;;;5.05;1.23;;;4.90;99.90;;;;;;6240048;23;20042;-81
2022/12/06 03:51:28;;;;;;;4.35;1.10;;;4.90;99.90;;;;;;6241803;23;20091;-81
2022/12/06 03:53:58;;;;;;;4.90;1.00;;;4.90;99.90;;;;;;6239786;23;20138;-81
2022/12/06 03:56:24;;;;;;;3.10;1.02;;;4.90;99.90;;;;;;6241142;23;20020;-81
2022/12/06 03:58:50;;;;;;;6.22;1.42;;;4.90;99.90;;;;;;6242320;23;20053;-81
2022/12/06 04:01:16;;;;;;;4.47;1.20;;;4.90;99.90;;;;;;6239981;23;20016;-81
2022/12/06 04:03:42;;;;;;;3.80;1.00;;;4.90;99.90;;;;;;6239873;23;20022;-82
2022/12/06 04:06:08;;;;;;;7.22;1.33;;;4.90;99.90;;;;;;6239627;23;20099;-82
2022/12/06 04:08:35;;;;;;;2.17;0.93;;;4.90;99.90;;;;;;6241804;22;20039;-81
2022/12/06 04:11:01;;;;;;;5.20;1.33;;;4.90;99.90;;;;;;6239175;23;20016;-81
2022/12/06 04:13:28;;;;;;;5.53;1.45;;;4.80;99.90;;;;;;6241480;22;20530;-81
2022/12/06 04:15:55;;;;;;;3.85;1.33;;;4.80;99.90;;;;;;6240023;23;20016;-81
2022/12/06 04:18:22;;;;;;;6.78;1.50;;;4.70;99.90;;;;;;6239987;23;20012;-80
2022/12/06 04:23:37;;;;;;;5.13;1.25;;;4.70;99.90;;;;;;6241905;23;20019;-81
2022/12/06 04:26:05;;;;;;;6.18;1.77;;;4.60;99.90;;;;;;6239707;23;20020;-81
2022/12/06 04:39:28;;;;;;;4.63;1.60;;;4.50;99.90;;;;;;6241437;23;20020;-82
2022/12/06 04:44:39;;;;;;;6.70;1.63;;;4.50;99.90;;;;;;6241739;23;20024;-81
2022/12/06 04:47:05;;;;;;;4.15;1.20;;;4.50;99.90;;;;;;6241265;22;20031;-81
2022/12/06 04:49:31;;;;;;;5.50;1.80;;;4.40;99.90;;;;;;6241243;23;20008;-81
2022/12/06 04:51:56;;;;;;;5.45;1.70;;;4.40;99.90;;;;;;6239176;23;20023;-81
2022/12/06 04:54:23;;;;;;;5.63;1.70;;;4.40;99.90;;;;;;6238919;23;20514;-81
2022/12/06 04:56:48;;;;;;;3.80;1.38;;;4.30;99.90;;;;;;6240671;23;20522;-81
2022/12/06 04:59:14;;;;;;;6.45;1.60;;;4.30;99.90;;;;;;6241225;23;20016;-81
2022/12/06 05:01:39;;;;;;;9.55;1.38;;;4.30;99.90;;;;;;6240867;23;20063;-81
2022/12/06 05:04:05;;;;;;;6.05;1.55;;;4.30;99.90;;;;;;6239316;23;20016;-81
2022/12/06 05:06:31;;;;;;;5.00;1.55;;;4.20;99.90;;;;;;6213308;23;20317;-81
2022/12/06 05:08:56;;;;;;;7.35;1.60;;;4.50;99.90;;;;;;6237949;23;20020;-81
2022/12/06 05:11:22;;;;;;;5.75;1.55;;;4.20;99.90;;;;;;6239784;23;20020;-81
2022/12/06 05:13:48;;;;;;;5.70;1.55;;;4.10;99.90;;;;;;6240666;23;20714;-81
2022/12/06 05:16:13;;;;;;;6.35;1.58;;;4.60;99.90;;;;;;6240077;23;20382;-81
2022/12/06 05:18:40;;;;;;;4.18;1.30;;;4.00;99.90;;;;;;6239971;22;20074;-81
2022/12/06 05:21:12;;;;;;;5.68;1.45;;;4.00;99.90;;;;;;6238751;23;20023;-81
2022/12/06 05:23:38;;;;;;;5.10;1.40;;;3.90;99.90;;;;;;6239162;23;20016;-81
2022/12/06 05:26:07;;;;;;;4.70;1.30;;;3.90;99.90;;;;;;6239066;23;20013;-81
2022/12/06 05:28:33;;;;;;;4.72;1.52;;;3.80;99.90;;;;;;6238513;23;20045;-81
2022/12/06 05:31:00;;;;;;;3.67;1.30;;;3.80;99.90;;;;;;6240631;23;20023;-81
2022/12/06 05:33:26;;;;;;;3.95;1.60;;;3.70;99.90;;;;;;6237315;23;20020;-81
2022/12/06 05:35:52;;;;;;;4.53;1.73;;;3.70;99.90;;;;;;6239260;23;20016;-81
2022/12/06 05:38:18;;;;;;;4.40;1.95;;;3.60;99.90;;;;;;6239610;23;20015;-81
2022/12/06 05:40:45;;;;;;;5.97;1.50;;;3.50;99.90;;;;;;6239141;23;20402;-81
2022/12/06 05:43:11;;;;;;;5.47;1.52;;;3.50;99.90;;;;;;6238597;23;20062;-81
2022/12/06 05:45:37;;;;;;;4.60;1.60;;;3.40;99.90;;;;;;6240403;23;20292;-82
2022/12/06 05:48:04;;;;;;;4.20;1.40;;;3.40;99.90;;;;;;6240562;23;20027;-81
2022/12/06 05:50:30;;;;;;;4.72;1.80;;;3.40;99.90;;;;;;6238234;23;20422;-80
2022/12/06 05:52:57;;;;;;;5.63;1.52;;;3.30;99.90;;;;;;6238909;23;20098;-81
2022/12/06 05:55:23;;;;;;;4.93;1.70;;;3.40;99.90;;;;;;6240697;22;20016;-80
2022/12/06 05:57:49;;;;;;;5.68;1.60;;;3.40;99.90;;;;;;6240339;23;20018;-80
2022/12/06 06:00:16;;;;;;;4.95;1.85;;;3.50;99.90;;;;;;6238342;23;20016;-81
2022/12/06 06:02:42;;;;;;;5.70;1.73;;;3.50;99.90;;;;;;6240609;22;20051;-81
2022/12/06 06:05:08;;;;;;;5.88;1.60;;;3.50;99.90;;;;;;6240694;23;20016;-81
2022/12/06 06:07:37;;;;;;;4.45;1.60;;;3.50;99.90;;;;;;6240887;23;20513;-83
2022/12/06 06:10:05;;;;;;;5.53;1.33;;;3.90;99.90;;;;;;6240242;23;20024;-80
2022/12/06 06:12:32;;;;;;;5.70;1.67;;;3.50;99.90;;;;;;6239738;23;20027;-81
2022/12/06 06:14:58;;;;;;;4.60;2.08;;;3.50;99.90;;;;;;6243409;23;20018;-82
2022/12/06 06:17:23;;;;;;;7.18;1.63;;;3.60;99.90;;;;;;6241534;23;20091;-82
2022/12/06 06:19:50;;;;;;;7.47;1.88;;;3.60;99.90;;;;;;6241541;23;20016;-81
2022/12/06 06:22:17;;;;;;;7.07;2.10;;;3.70;99.90;;;;;;6241398;23;20047;-82
2022/12/06 06:24:43;;;;;;;6.45;2.80;;;3.50;99.90;;;;;;6243442;22;20016;-80
2022/12/06 06:27:09;;;;;;;8.18;2.28;;;3.50;99.90;;;;;;6242752;23;20028;-81
2022/12/06 06:29:35;;;;;;;6.55;2.22;;;3.40;99.90;;;;;;6240883;23;20031;-81
2022/12/06 06:32:01;;;;;;;8.35;2.42;;;3.30;99.90;;;;;;6242215;23;20020;-82
2022/12/06 06:34:26;;;;;;;8.48;3.40;;;3.30;99.90;;;;;;6241600;23;20023;-82
2022/12/06 06:36:52;;;;;;;6.93;3.10;;;3.30;99.90;;;;;;6242245;23;20462;-81
2022/12/06 06:39:18;;;;;;;10.02;3.00;;;3.30;99.90;;;;;;6243859;23;20020;-81
2022/12/06 06:41:44;;;;;;;5.72;3.00;;;3.30;99.90;;;;;;6241540;23;20135;-82
2022/12/06 06:44:10;;;;;;;7.13;2.90;;;3.30;99.90;;;;;;6241350;23;20016;-83
2022/12/06 06:46:36;;;;;;;8.80;3.03;;;3.30;99.90;;;;;;6241387;23;20020;-81
2022/12/06 06:49:02;;;;;;;8.80;3.10;;;3.40;99.90;;;;;;6239995;23;20016;-81
2022/12/06 06:51:29;;;;;;;6.18;2.40;;;3.40;99.90;;;;;;6240662;23;20074;-82
2022/12/06 06:53:57;;;;;;;6.28;2.25;;;3.40;99.90;;;;;;6241010;23;20016;-82
2022/12/06 06:56:22;;;;;;;8.40;2.33;;;3.40;99.90;;;;;;6241094;23;20395;-81
2022/12/06 06:58:49;;;;;;;7.65;2.00;;;3.50;99.90;;;;;;6243476;23;20439;-82
2022/12/06 07:01:21;;;;;;;5.50;2.30;;;3.50;99.90;;;;;;6240632;23;20028;-82
2022/12/06 07:03:47;;;;;;;4.95;1.90;;;3.50;99.90;;;;;;6241192;23;20453;-82
2022/12/06 07:06:13;;;;;;;5.35;2.50;;;3.50;99.90;;;;;;6242434;23;20016;-82
2022/12/06 07:08:40;;;;;;;5.35;2.00;;;3.50;99.90;;;;;;6240924;23;20016;-82
2022/12/06 07:11:07;;;;;;;4.38;1.63;;;3.40;99.90;;;;;;6240424;23;20084;-82
2022/12/06 07:13:35;;;;;;;7.03;2.15;;;3.40;99.90;;;;;;6241557;23;20094;-81
2022/12/06 07:16:06;;;;;;;6.65;2.13;;;3.30;99.90;;;;;;6242563;23;20034;-81
2022/12/06 07:18:32;;;;;;;6.57;1.85;;;3.30;99.90;;;;;;6243046;23;20320;-82
2022/12/06 07:21:06;;;;;;;6.18;2.53;;;3.20;99.90;;;;;;6244941;22;20019;-82
2022/12/06 07:23:34;;;;;;;7.23;1.90;;;3.10;99.90;;;;;;6236946;23;20048;-82
2022/12/06 07:26:05;;;;;;;3.70;1.52;;;3.00;99.90;;;;;;6238113;23;20459;-83
2022/12/06 07:28:31;;;;;;;7.95;2.35;;;3.00;99.90;;;;;;6238824;22;20451;-82
2022/12/06 07:30:56;;;;;;;7.22;2.45;;;2.90;99.90;;;;;;6238424;23;20012;-80
2022/12/06 07:33:22;;;;;;;8.55;2.63;;;2.90;99.90;;;;;;6241304;23;20013;-82
2022/12/06 07:35:52;;;;;;;6.78;2.25;;;2.80;99.90;;;;;;6239548;23;20020;-84
2022/12/06 07:38:18;;;;;;;7.38;2.40;;;2.70;99.90;;;;;;6237313;22;20016;-82
2022/12/06 07:40:44;;;;;;;5.65;2.25;;;2.70;99.90;;;;;;6240316;22;20055;-81
2022/12/06 07:45:54;;;;;;;8.68;3.50;;;2.60;99.90;;;;;;6236986;23;20024;-81
2022/12/06 07:48:20;;;;;;;9.15;3.20;;;2.60;99.90;;;;;;6239975;23;20008;-82
2022/12/06 07:50:46;;;;;;;4.78;2.92;;;2.60;99.90;;;;;;6241011;22;20016;-82
2022/12/06 07:53:12;;;;;;;6.05;2.45;;;2.50;99.90;;;;;;6241620;23;20008;-81
2022/12/06 07:55:38;;;;;;;6.88;2.13;;;2.50;99.90;;;;;;6241719;23;20031;-81
2022/12/06 07:58:03;;;;;;;5.28;2.40;;;2.50;99.90;;;;;;6239852;23;20023;-81
2022/12/06 08:00:29;;;;;;;7.22;2.75;;;2.50;99.90;;;;;;6241208;23;20012;-82
2022/12/06 08:02:55;;;;;;;4.90;2.28;;;2.40;99.90;;;;;;6241608;22;20008;-82
2022/12/06 08:05:20;;;;;;;5.88;2.30;;;2.40;99.90;;;;;;6241774;23;20015;-82
2022/12/06 08:07:46;;;;;;;5.45;2.35;;;2.40;99.90;;;;;;6241200;23;20505;-82
2022/12/06 08:10:12;;;;;;;7.13;2.30;;;2.40;99.90;;;;;;6241363;22;20009;-82
2022/12/06 08:12:38;;;;;;;4.60;1.83;;;2.30;99.90;;;;;;6241852;23;20106;-82
2022/12/06 08:15:04;;;;;;;5.10;2.20;;;2.30;99.90;;;;;;6240999;23;20047;-82
2022/12/06 08:17:30;;;;;;;5.05;2.35;;;2.30;99.90;;;;;;6241443;22;20009;-82
2022/12/06 08:19:56;;;;;;;8.43;3.15;;;2.30;99.90;;;;;;6241355;23;20027;-82
2022/12/06 08:22:21;;;;;;;6.40;2.90;;;2.30;99.90;;;;;;6241395;23;20380;-81
2022/12/06 08:24:47;;;;;;;8.60;3.35;;;2.30;99.90;;;;;;6241832;23;20024;-82
2022/12/06 08:27:13;;;;;;;8.52;3.63;;;2.40;99.90;;;;;;6240738;23;20016;-82
2022/12/06 08:29:38;;;;;;;9.23;4.05;;;2.40;99.90;;;;;;6241132;23;20073;-81
2022/12/06 08:32:04;;;;;;;10.25;3.63;;;2.60;99.90;;;;;;6241940;23;20028;-82
2022/12/06 08:34:30;;;;;;;7.95;4.00;;;2.70;99.90;;;;;;6239727;23;20252;-82
2022/12/06 08:36:55;;;;;;;7.25;3.30;;;2.60;99.90;;;;;;6241288;23;20012;-82
2022/12/06 08:39:24;;;;;;;9.18;4.03;;;2.70;99.90;;;;;;6241718;23;20040;-82
2022/12/06 08:41:56;;;;;;;9.50;4.13;;;2.70;99.90;;;;;;6240748;22;20012;-82
2022/12/06 08:44:24;;;;;;;9.10;4.40;;;2.90;99.90;;;;;;6241570;22;20066;-82
2022/12/06 08:46:51;;;;;;;14.00;4.30;;;2.90;99.90;;;;;;6241486;23;20077;-82
2022/12/06 08:49:17;;;;;;;9.93;3.85;;;3.00;99.90;;;;;;6241944;22;20012;-82
2022/12/06 08:51:43;;;;;;;9.60;4.80;;;3.10;99.90;;;;;;6241393;23;20022;-82
2022/12/06 08:54:12;;;;;;;8.73;4.30;;;3.20;99.90;;;;;;6241137;23;20016;-82
2022/12/06 08:56:38;;;;;;;9.48;3.90;;;3.30;99.90;;;;;;6240720;22;20141;-81
2022/12/06 08:59:04;;;;;;;10.88;3.95;;;3.40;99.90;;;;;;6240957;23;20058;-82
2022/12/06 09:01:32;;;;;;;8.60;3.60;;;3.40;99.90;;;;;;6241358;23;20008;-82
2022/12/06 09:03:58;;;;;;;7.00;3.17;;;3.50;99.90;;;;;;6241292;23;20092;-82
2022/12/06 09:06:25;;;;;;;10.10;3.58;;;3.40;99.90;;;;;;6240778;23;20020;-82
2022/12/06 09:08:50;;;;;;;9.18;3.85;;;3.60;99.90;;;;;;6241273;23;20096;-82
2022/12/06 09:11:17;;;;;;;6.45;3.00;;;3.70;99.90;;;;;;6240674;23;20048;-82
2022/12/06 09:13:43;;;;;;;6.95;3.33;;;3.80;99.90;;;;;;6239363;23;20015;-81
2022/12/06 09:16:11;;;;;;;7.82;4.05;;;4.60;99.90;;;;;;6241347;23;20051;-81
2022/12/06 09:18:37;;;;;;;6.28;3.40;;;3.90;99.90;;;;;;6241189;23;20009;-82
2022/12/06 09:21:08;;;;;;;5.75;3.03;;;3.90;99.90;;;;;;6241073;23;20066;-82
2022/12/06 09:23:34;;;;;;;9.70;3.05;;;3.90;99.90;;;;;;6240995;23;20719;-82
2022/12/06 09:26:00;;;;;;;7.88;2.67;;;3.90;99.90;;;;;;6239961;23;20432;-82
2022/12/06 09:28:27;;;;;;;6.53;2.42;;;3.90;99.90;;;;;;6240623;22;20011;-81
2022/12/06 09:30:53;;;;;;;9.00;3.42;;;3.90;99.90;;;;;;6241194;23;20028;-82
2022/12/06 09:33:18;;;;;;;8.20;3.55;;;3.90;99.90;;;;;;6240958;23;20066;-81
2022/12/06 09:35:44;;;;;;;9.40;3.47;;;4.00;99.90;;;;;;6240979;23;20461;-81
2022/12/06 09:38:10;;;;;;;7.30;2.95;;;4.00;99.90;;;;;;6240838;23;20008;-82
2022/12/06 09:40:55;;;;;;;6.78;2.75;;;4.00;99.90;;;;;;6240056;23;20016;-81
2022/12/06 09:43:49;;;;;;;6.00;2.58;;;4.00;99.90;;;;;;6240135;23;20087;-82
2022/12/06 09:46:43;;;;;;;7.07;3.10;;;3.90;99.90;;;;;;6240862;23;20453;-81
2022/12/06 09:49:22;;;;;;;8.73;3.22;;;3.90;99.90;;;;;;6241028;23;20408;-82
2022/12/06 09:52:25;;;;;;;7.80;3.25;;;3.90;99.90;;;;;;6241069;23;20091;-82
2022/12/06 09:54:58;;;;;;;6.50;2.70;;;3.80;99.90;;;;;;6240054;23;20044;-82
2022/12/06 09:57:30;;;;;;;6.57;2.83;;;3.80;99.90;;;;;;6240589;23;20016;-81
2022/12/06 10:00:04;;;;;;;7.63;3.33;;;3.80;99.90;;;;;;6241056;23;20031;-82
2022/12/06 10:02:33;;;;;;;;;;;3.90;99.90;;;;;;6239626;23;20020;-81
2022/12/06 10:05:20;;;;;;;5.82;2.53;;;3.90;99.90;;;;;;6238887;23;19920;-82
2022/12/06 10:07:54;;;;;;;7.35;2.80;;;3.90;99.90;;;;;;6238716;23;20074;-81
2022/12/06 10:10:25;;;;;;;7.43;2.70;;;4.00;99.90;;;;;;6240387;22;20091;-82
2022/12/06 10:12:56;;;;;;;6.53;2.53;;;4.10;99.90;;;;;;6240860;23;20012;-81
2022/12/06 10:15:45;;;;;;;9.75;3.55;;;4.20;99.90;;;;;;6237899;23;20453;-82
2022/12/06 10:18:16;;;;;;;7.53;2.80;;;4.30;99.90;;;;;;6238526;23;20015;-81
2022/12/06 10:20:45;;;;;;;9.60;2.53;;;4.40;99.90;;;;;;6240469;23;20069;-82
2022/12/06 10:23:22;;;;;;;6.38;2.72;;;4.50;99.90;;;;;;6238020;23;20016;-81
2022/12/06 10:26:00;;;;;;;5.70;2.00;;;4.50;99.90;;;;;;6240295;23;20031;-82
2022/12/06 10:28:42;;;;;;;8.93;2.78;;;4.50;99.90;;;;;;6238497;23;20083;-81
2022/12/06 10:31:26;;;;;;;8.52;2.45;;;4.60;99.90;;;;;;6239200;23;20443;-82
2022/12/06 10:33:59;;;;;;;6.18;2.50;;;4.60;99.90;;;;;;6239446;23;20019;-82
2022/12/06 10:36:34;;;;;;;8.68;2.25;;;4.60;99.90;;;;;;6239159;22;20016;-81
2022/12/06 10:39:10;;;;;;;9.63;2.88;;;4.60;99.90;;;;;;6234442;23;20027;-82
2022/12/06 10:41:54;;;;;;;7.28;2.40;;;4.70;99.90;;;;;;6238104;23;20012;-82
2022/12/06 10:44:31;;;;;;;5.57;2.88;;;4.70;99.90;;;;;;6239735;23;20065;-82
2022/12/06 10:47:12;;;;;;;10.38;6.63;;;4.80;99.90;;;;;;6240286;22;20079;-82
2022/12/06 10:49:56;;;;;;;14.43;8.70;;;4.90;99.90;;;;;;6239737;22;20087;-83
2022/12/06 10:52:39;;;;;;;7.75;2.35;;;5.00;99.90;;;;;;6238847;23;20027;-82
2022/12/06 10:55:17;;;;;;;8.25;1.90;;;4.60;99.90;;;;;;6239289;23;20020;-83
2022/12/06 10:57:49;;;;;;;9.38;3.80;;;5.20;99.90;;;;;;6237704;23;20087;-82
2022/12/06 11:00:23;;;;;;;10.38;5.65;;;5.50;99.90;;;;;;6238306;23;20115;-82
2022/12/06 11:03:15;;;;;;;7.75;2.42;;;5.30;99.90;;;;;;6237161;23;20031;-81
2022/12/06 11:06:06;;;;;;;5.80;2.03;;;5.40;99.90;;;;;;6240537;23;20031;-81
2022/12/06 11:08:39;;;;;;;5.40;2.13;;;5.50;99.90;;;;;;6224660;23;20059;-81
2022/12/06 11:11:13;;;;;;;6.88;2.78;;;5.60;99.90;;;;;;6240980;22;20087;-82
2022/12/06 11:13:53;;;;;;;4.78;1.67;;;5.70;99.90;;;;;;6239218;23;20016;-82
2022/12/06 11:16:25;;;;;;;4.07;1.50;;;5.80;99.90;;;;;;6240644;23;20008;-82
2022/12/06 11:18:56;;;;;;;5.63;1.75;;;5.90;99.90;;;;;;6242038;23;20138;-82
2022/12/06 11:21:37;;;;;;;4.38;1.58;;;5.90;99.90;;;;;;6238887;23;20031;-82
2022/12/06 11:24:18;;;;;;;6.25;1.40;;;5.90;99.90;;;;;;6239708;23;20012;-82
2022/12/06 11:26:56;;;;;;;5.50;1.50;;;5.90;99.90;;;;;;6241258;23;20034;-82
2022/12/06 11:29:22;;;;;;;4.10;1.30;;;5.90;99.90;;;;;;6240865;23;20030;-82
2022/12/06 11:31:49;;;;;;;7.70;1.55;;;5.90;99.90;;;;;;6239617;23;20757;-82
2022/12/06 11:34:24;;;;;;;7.45;2.47;;;6.00;99.90;;;;;;6239656;23;20348;-82
2022/12/06 11:36:52;;;;;;;6.93;3.38;;;6.10;99.90;;;;;;6240021;23;20065;-82
2022/12/06 11:39:17;;;;;;;10.20;4.65;;;6.20;99.90;;;;;;6239675;23;20035;-81
2022/12/06 11:41:48;;;;;;;15.45;6.82;;;6.20;99.90;;;;;;6241326;23;20004;-82
2022/12/06 11:44:20;;;;;;;6.65;2.35;;;6.30;99.90;;;;;;6240683;23;20118;-83
2022/12/06 11:46:52;;;;;;;6.30;2.10;;;6.40;99.90;;;;;;6239911;22;20023;-82
2022/12/06 11:49:27;;;;;;;8.25;2.63;;;6.50;99.90;;;;;;6240858;23;20023;-82
2022/12/06 11:51:54;;;;;;;3.05;1.42;;;6.60;99.90;;;;;;6238335;23;20021;-83
2022/12/06 11:54:32;;;;;;;6.70;2.63;;;6.80;99.90;;;;;;6239550;23;20031;-82
2022/12/06 11:57:09;;;;;;;4.68;1.75;;;6.90;99.90;;;;;;6240902;23;20490;-85
2022/12/06 11:59:35;;;;;;;2.80;1.20;;;6.90;99.90;;;;;;6239621;22;20016;-82
2022/12/06 12:02:03;;;;;;;4.38;1.88;;;6.90;99.90;;;;;;6238975;23;20023;-83
2022/12/06 12:04:40;;;;;;;5.35;2.10;;;6.90;99.90;;;;;;6240433;23;20008;-82
2022/12/06 12:07:15;;;;;;;6.30;2.10;;;6.90;99.90;;;;;;6240205;22;20083;-82
2022/12/06 12:09:52;;;;;;;4.03;1.58;;;6.80;99.90;;;;;;6241335;22;20035;-83
2022/12/06 12:13:42;;;;;;;6.43;2.92;;;6.70;99.90;;;;;;6241394;23;20027;-83
2022/12/06 12:15:20;;;;;;;9.23;4.38;;;6.70;99.90;;;;;;6239262;23;20024;-82
2022/12/06 12:17:51;;;;;;;4.55;1.17;;;6.60;99.90;;;;;;6239237;23;20008;-83
2022/12/06 12:20:24;;;;;;;6.18;1.73;;;6.50;99.90;;;;;;6239162;23;20020;-83
2022/12/06 12:23:15;;;;;;;8.02;3.78;;;6.50;99.90;;;;;;6241324;23;20063;-82
2022/12/06 12:25:42;;;;;;;9.65;2.83;;;6.50;99.90;;;;;;6240982;23;20016;-83
2022/12/06 12:28:27;;;;;;;6.30;1.70;;;6.50;99.90;;;;;;6239856;22;20050;-88
2022/12/06 12:30:54;;;;;;;5.00;1.40;;;6.60;99.90;;;;;;6239930;22;20035;-82
2022/12/06 12:33:22;;;;;;;5.57;1.65;;;6.60;99.90;;;;;;6240945;22;20016;-82
2022/12/06 12:35:49;;;;;;;4.53;1.65;;;6.60;99.90;;;;;;6238982;23;20012;-81
2022/12/06 12:38:19;;;;;;;5.72;1.92;;;6.60;99.90;;;;;;6239152;23;20454;-80
2022/12/06 12:40:50;;;;;;;4.47;1.60;;;6.60;99.90;;;;;;6240391;22;20020;-81
2022/12/06 12:43:21;;;;;;;5.65;1.50;;;6.60;99.90;;;;;;6240589;23;20091;-81
2022/12/06 12:46:05;;;;;;;4.55;1.67;;;6.60;99.90;;;;;;6238998;22;20008;-82
2022/12/06 12:48:31;;;;;;;5.60;1.58;;;6.60;99.90;;;;;;6240614;23;20078;-81
2022/12/06 12:50:59;;;;;;;3.03;1.35;;;6.60;99.90;;;;;;6240262;23;20427;-82
2022/12/06 12:53:29;;;;;;;6.68;1.90;;;6.60;99.90;;;;;;6240816;23;20044;-82
2022/12/06 12:56:13;;;;;;;6.07;1.95;;;6.60;99.90;;;;;;6238767;23;20479;-81
2022/12/06 12:58:40;;;;;;;4.53;1.53;;;6.60;99.90;;;;;;6238439;23;20074;-81
2022/12/06 13:01:23;;;;;;;4.47;1.73;;;6.60;99.90;;;;;;6238701;23;20031;-81
2022/12/06 13:04:14;;;;;;;4.22;1.48;;;6.60;99.90;;;;;;6240315;23;20008;-81
2022/12/06 13:06:53;;;;;;;4.65;1.75;;;6.60;99.90;;;;;;6240385;22;20020;-81
2022/12/06 13:09:27;;;;;;;4.78;1.60;;;6.60;99.90;;;;;;6238548;23;20020;-81
2022/12/06 13:11:58;;;;;;;3.78;1.40;;;6.70;99.90;;;;;;6240400;22;20087;-81
2022/12/06 13:14:26;;;;;;;3.25;1.52;;;6.70;99.90;;;;;;6240319;23;20015;-81
2022/12/06 13:16:55;;;;;;;3.63;1.58;;;6.80;99.90;;;;;;6239993;23;20016;-81
2022/12/06 13:19:27;;;;;;;11.60;3.30;;;6.80;99.90;;;;;;6239443;22;20444;-81
2022/12/06 13:21:53;;;;;;;6.38;2.33;;;6.80;99.90;;;;;;6240866;23;20039;-81
2022/12/06 13:24:25;;;;;;;5.93;1.85;;;6.80;99.90;;;;;;6240460;23;20095;-81
2022/12/06 13:26:56;;;;;;;6.03;1.80;;;6.90;99.90;;;;;;6239452;23;20051;-81
2022/12/06 13:29:42;;;;;;;4.13;1.73;;;6.90;99.90;;;;;;6263511;22;20015;-81
2022/12/06 13:32:22;;;;;;;6.10;1.48;;;6.90;99.90;;;;;;6239641;23;20016;-81